Time,TemperatureF,DewpointF,PressureIn,WindDirection,WindDirectionDegrees,WindSpeedMPH,WindSpeedGustMPH,Humidity,HourlyPrecipIn,Conditions,Clouds,dailyrainin,SoftwareType,DateUTC
2013-05-06 00:01:00,55.6,54.8,29.74,East,90,0.0,3.0,97,0.19,,CLR,0.00,VWS V14.00,2013-05-06 04:01:00,
2013-05-06 00:06:00,55.7,54.9,29.74,East,82,1.0,3.0,97,0.21,,CLR,0.02,VWS V14.00,2013-05-06 04:06:00,
2013-05-06 00:11:00,55.7,54.9,29.74,ESE,104,0.0,3.0,97,0.22,,CLR,0.03,VWS V14.00,2013-05-06 04:11:00,
2013-05-06 00:16:00,55.7,54.9,29.73,ENE,66,0.0,4.0,97,0.23,,CLR,0.04,VWS V14.00,2013-05-06 04:16:00,
2013-05-06 00:21:00,55.6,54.8,29.73,SSE,161,0.0,4.0,97,0.25,,CLR,0.06,VWS V14.00,2013-05-06 04:21:00,
2013-05-06 00:26:00,55.6,54.8,29.73,SSE,150,0.0,4.0,97,0.27,,CLR,0.08,VWS V14.00,2013-05-06 04:26:00,
2013-05-06 00:31:00,55.5,54.7,29.73,SSE,150,0.0,0.0,97,0.16,,CLR,0.10,VWS V14.00,2013-05-06 04:31:00,
2013-05-06 00:36:00,55.5,54.7,29.73,SSE,150,0.0,1.0,97,0.17,,CLR,0.11,VWS V14.00,2013-05-06 04:36:00,
2013-05-06 00:41:00,55.5,54.7,29.73,SSE,150,0.0,1.0,97,0.17,,CLR,0.11,VWS V14.00,2013-05-06 04:41:00,
2013-05-06 00:46:00,55.5,54.7,29.73,SSE,150,0.0,1.0,97,0.18,,CLR,0.12,VWS V14.00,2013-05-06 04:46:00,
2013-05-06 00:51:00,55.4,54.6,29.73,SSE,150,0.0,1.0,97,0.21,,CLR,0.15,VWS V14.00,2013-05-06 04:51:00,
2013-05-06 00:56:00,55.4,54.6,29.73,SSE,150,0.0,1.0,97,0.26,,CLR,0.20,VWS V14.00,2013-05-06 04:56:00,
2013-05-06 01:01:00,55.4,54.6,29.74,SSE,150,0.0,0.0,97,0.25,,CLR,0.25,VWS V14.00,2013-05-06 05:01:00,
2013-05-06 01:06:00,55.4,54.6,29.74,SSE,150,0.0,0.0,97,0.27,,CLR,0.27,VWS V14.00,2013-05-06 05:06:00,
2013-05-06 01:11:00,55.4,54.6,29.74,SSE,150,0.0,0.0,97,0.28,,CLR,0.28,VWS V14.00,2013-05-06 05:11:00,
2013-05-06 01:16:00,55.5,54.7,29.73,SSE,150,0.0,0.0,97,0.28,,CLR,0.28,VWS V14.00,2013-05-06 05:16:00,
2013-05-06 01:21:00,55.4,54.6,29.73,SSE,150,0.0,1.0,97,0.29,,CLR,0.29,VWS V14.00,2013-05-06 05:21:00,
2013-05-06 01:26:00,55.5,54.7,29.73,SSE,150,0.0,1.0,97,0.29,,CLR,0.29,VWS V14.00,2013-05-06 05:26:00,
2013-05-06 01:31:00,55.6,54.8,29.74,SE,134,0.0,2.0,97,0.20,,CLR,0.29,VWS V14.00,2013-05-06 05:31:00,
2013-05-06 01:36:00,55.7,54.9,29.74,SE,134,0.0,2.0,97,0.20,,CLR,0.29,VWS V14.00,2013-05-06 05:36:00,
2013-05-06 01:41:00,55.8,55.0,29.74,ESE,123,0.0,4.0,97,0.20,,CLR,0.29,VWS V14.00,2013-05-06 05:41:00,
2013-05-06 01:46:00,55.9,55.3,29.74,ESE,115,0.0,4.0,98,0.20,,CLR,0.29,VWS V14.00,2013-05-06 05:46:00,
2013-05-06 01:51:00,55.9,55.3,29.74,East,89,0.0,4.0,98,0.20,,CLR,0.29,VWS V14.00,2013-05-06 05:51:00,
2013-05-06 01:56:00,55.9,55.3,29.74,ESE,103,0.0,4.0,98,0.20,,CLR,0.29,VWS V14.00,2013-05-06 05:56:00,
2013-05-06 02:01:00,56.0,55.5,29.73,ESE,103,0.0,1.0,98,0.07,,CLR,0.29,VWS V14.00,2013-05-06 06:01:00,
2013-05-06 02:06:00,56.0,55.5,29.73,ESE,108,0.0,1.0,98,0.07,,CLR,0.29,VWS V14.00,2013-05-06 06:06:00,
2013-05-06 02:11:00,56.0,55.5,29.73,East,89,0.0,1.0,98,0.07,,CLR,0.29,VWS V14.00,2013-05-06 06:11:00,
2013-05-06 02:16:00,56.1,55.5,29.73,East,89,0.0,2.0,98,0.07,,CLR,0.29,VWS V14.00,2013-05-06 06:16:00,
2013-05-06 02:21:00,56.1,55.3,29.73,SE,129,0.0,4.0,97,0.07,,CLR,0.29,VWS V14.00,2013-05-06 06:21:00,
2013-05-06 02:26:00,56.1,55.3,29.73,SE,140,0.0,4.0,97,0.07,,CLR,0.29,VWS V14.00,2013-05-06 06:26:00,
2013-05-06 02:31:00,56.2,55.4,29.73,East,94,0.0,2.0,97,0.00,,CLR,0.29,VWS V14.00,2013-05-06 06:31:00,
2013-05-06 02:36:00,56.2,55.4,29.73,ENE,64,0.0,3.0,97,0.00,,CLR,0.29,VWS V14.00,2013-05-06 06:36:00,
2013-05-06 02:41:00,56.3,55.5,29.73,SE,124,0.0,3.0,97,0.00,,CLR,0.29,VWS V14.00,2013-05-06 06:41:00,
2013-05-06 02:46:00,56.3,55.5,29.73,SSE,157,0.0,5.0,97,0.00,,CLR,0.29,VWS V14.00,2013-05-06 06:46:00,
2013-05-06 02:51:00,56.3,55.5,29.73,SSE,166,0.0,5.0,97,0.00,,CLR,0.29,VWS V14.00,2013-05-06 06:51:00,
2013-05-06 02:56:00,56.4,55.6,29.73,SSE,160,0.0,5.0,97,0.00,,CLR,0.29,VWS V14.00,2013-05-06 06:56:00,
2013-05-06 03:01:00,56.4,55.6,29.73,SSE,160,0.0,1.0,97,0.00,,CLR,0.29,VWS V14.00,2013-05-06 07:01:00,
2013-05-06 03:06:00,56.4,55.8,29.73,SSE,160,0.0,1.0,98,0.00,,CLR,0.29,VWS V14.00,2013-05-06 07:06:00,
2013-05-06 03:11:00,56.4,55.6,29.73,SSE,160,0.0,1.0,97,0.00,,CLR,0.29,VWS V14.00,2013-05-06 07:11:00,
2013-05-06 03:16:00,56.5,55.9,29.73,SSE,160,0.0,1.0,98,0.00,,CLR,0.29,VWS V14.00,2013-05-06 07:16:00,
2013-05-06 03:21:00,56.5,55.9,29.73,SSE,160,0.0,1.0,98,0.00,,CLR,0.29,VWS V14.00,2013-05-06 07:21:00,
2013-05-06 03:26:00,56.6,56.0,29.73,SSE,160,0.0,1.0,98,0.00,,CLR,0.29,VWS V14.00,2013-05-06 07:26:00,
2013-05-06 03:31:00,56.6,56.0,29.73,SSE,151,0.0,0.0,98,0.00,,CLR,0.29,VWS V14.00,2013-05-06 07:31:00,
2013-05-06 03:36:00,56.7,56.1,29.73,SSE,150,0.0,1.0,98,0.00,,CLR,0.29,VWS V14.00,2013-05-06 07:36:00,
2013-05-06 03:41:00,56.7,56.1,29.73,SSE,151,0.0,1.0,98,0.00,,CLR,0.29,VWS V14.00,2013-05-06 07:41:00,
2013-05-06 03:46:00,56.6,56.0,29.73,SSE,150,0.0,1.0,98,0.00,,CLR,0.29,VWS V14.00,2013-05-06 07:46:00,
2013-05-06 03:51:00,56.5,55.9,29.73,SSE,150,0.0,1.0,98,0.00,,CLR,0.29,VWS V14.00,2013-05-06 07:51:00,
2013-05-06 03:56:00,56.5,55.9,29.73,SSE,150,0.0,1.0,98,0.00,,CLR,0.29,VWS V14.00,2013-05-06 07:56:00,
2013-05-06 04:01:00,56.5,55.9,29.73,SSE,151,0.0,0.0,98,0.00,,CLR,0.29,VWS V14.00,2013-05-06 08:01:00,
2013-05-06 04:06:00,56.5,55.9,29.73,SSE,151,0.0,0.0,98,0.00,,CLR,0.29,VWS V14.00,2013-05-06 08:06:00,
2013-05-06 04:11:00,56.5,55.7,29.73,SSE,150,0.0,0.0,97,0.00,,CLR,0.29,VWS V14.00,2013-05-06 08:11:00,
2013-05-06 04:16:00,56.4,55.6,29.73,SSE,150,0.0,0.0,97,0.00,,CLR,0.29,VWS V14.00,2013-05-06 08:16:00,
2013-05-06 04:21:00,56.3,55.5,29.73,SSE,151,0.0,0.0,97,0.00,,CLR,0.29,VWS V14.00,2013-05-06 08:21:00,
2013-05-06 04:26:00,56.2,55.7,29.73,SSE,151,0.0,0.0,98,0.00,,CLR,0.29,VWS V14.00,2013-05-06 08:26:00,
2013-05-06 04:31:00,56.2,55.7,29.73,SSE,151,0.0,0.0,98,0.00,,CLR,0.29,VWS V14.00,2013-05-06 08:31:00,
2013-05-06 04:36:00,56.1,55.5,29.73,SSE,150,0.0,0.0,98,0.00,,CLR,0.29,VWS V14.00,2013-05-06 08:36:00,
2013-05-06 04:41:00,56.1,55.5,29.73,SSE,151,0.0,0.0,98,0.00,,CLR,0.29,VWS V14.00,2013-05-06 08:41:00,
2013-05-06 04:46:00,56.1,55.5,29.73,SSE,151,0.0,0.0,98,0.00,,CLR,0.29,VWS V14.00,2013-05-06 08:46:00,
2013-05-06 04:51:00,56.1,55.5,29.73,SSE,151,0.0,0.0,98,0.00,,CLR,0.29,VWS V14.00,2013-05-06 08:51:00,
2013-05-06 04:56:00,56.1,55.5,29.73,SSE,151,0.0,0.0,98,0.00,,CLR,0.29,VWS V14.00,2013-05-06 08:56:00,
2013-05-06 05:01:00,56.3,55.5,29.73,SSE,150,0.0,0.0,97,0.00,,CLR,0.29,VWS V14.00,2013-05-06 09:01:00,
2013-05-06 05:06:00,56.4,55.6,29.73,SSE,151,0.0,0.0,97,0.00,,CLR,0.29,VWS V14.00,2013-05-06 09:06:00,
2013-05-06 05:11:00,56.5,55.7,29.73,SSE,151,0.0,0.0,97,0.00,,CLR,0.29,VWS V14.00,2013-05-06 09:11:00,
2013-05-06 05:16:00,56.5,55.7,29.73,SSE,151,0.0,0.0,97,0.00,,CLR,0.29,VWS V14.00,2013-05-06 09:16:00,
2013-05-06 05:21:00,56.5,55.7,29.73,SSE,151,0.0,0.0,97,0.00,,CLR,0.29,VWS V14.00,2013-05-06 09:21:00,
2013-05-06 05:26:00,56.5,55.7,29.73,SSE,151,0.0,0.0,97,0.00,,CLR,0.29,VWS V14.00,2013-05-06 09:26:00,
2013-05-06 05:31:00,56.5,55.7,29.73,SSE,150,0.0,0.0,97,0.00,,CLR,0.29,VWS V14.00,2013-05-06 09:31:00,
2013-05-06 05:36:00,56.4,55.6,29.73,SSE,150,0.0,0.0,97,0.00,,CLR,0.29,VWS V14.00,2013-05-06 09:36:00,
2013-05-06 05:41:00,56.3,55.5,29.73,SSE,151,0.0,0.0,97,0.00,,CLR,0.29,VWS V14.00,2013-05-06 09:41:00,
2013-05-06 05:46:00,56.1,55.5,29.73,SSE,151,0.0,0.0,98,0.00,,CLR,0.29,VWS V14.00,2013-05-06 09:46:00,
2013-05-06 05:51:00,56.1,55.5,29.73,SSE,151,0.0,0.0,98,0.00,,CLR,0.29,VWS V14.00,2013-05-06 09:51:00,
2013-05-06 05:56:00,56.1,55.5,29.73,SSE,150,0.0,0.0,98,0.00,,CLR,0.29,VWS V14.00,2013-05-06 09:56:00,
2013-05-06 06:01:00,56.0,55.5,29.72,SSE,151,0.0,0.0,98,0.00,,CLR,0.29,VWS V14.00,2013-05-06 10:01:00,
2013-05-06 06:06:00,56.0,55.5,29.72,SSE,151,0.0,0.0,98,0.00,,CLR,0.29,VWS V14.00,2013-05-06 10:06:00,
2013-05-06 06:11:00,55.9,55.3,29.72,SSE,150,0.0,0.0,98,0.00,,CLR,0.29,VWS V14.00,2013-05-06 10:11:00,
2013-05-06 06:16:00,55.9,55.3,29.73,SSE,150,0.0,0.0,98,0.00,,CLR,0.29,VWS V14.00,2013-05-06 10:16:00,
2013-05-06 06:21:00,55.9,55.3,29.73,SSE,151,0.0,0.0,98,0.00,,CLR,0.29,VWS V14.00,2013-05-06 10:21:00,
2013-05-06 06:26:00,56.1,55.5,29.73,SSE,151,0.0,0.0,98,0.00,,CLR,0.29,VWS V14.00,2013-05-06 10:26:00,
2013-05-06 06:31:00,56.1,55.5,29.73,SSE,150,0.0,0.0,98,0.00,,CLR,0.29,VWS V14.00,2013-05-06 10:31:00,
2013-05-06 06:36:00,56.1,55.5,29.73,SSE,151,0.0,0.0,98,0.00,,CLR,0.29,VWS V14.00,2013-05-06 10:36:00,
2013-05-06 06:41:00,56.2,55.7,29.73,SSE,150,0.0,0.0,98,0.00,,CLR,0.29,VWS V14.00,2013-05-06 10:41:00,
2013-05-06 06:46:00,56.2,55.7,29.74,SSE,150,0.0,0.0,98,0.00,,CLR,0.29,VWS V14.00,2013-05-06 10:46:00,
2013-05-06 06:51:00,56.3,55.8,29.74,SSE,151,0.0,0.0,98,0.00,,CLR,0.29,VWS V14.00,2013-05-06 10:51:00,
2013-05-06 06:56:00,56.3,55.8,29.74,SSE,151,0.0,0.0,98,0.00,,CLR,0.29,VWS V14.00,2013-05-06 10:56:00,
2013-05-06 07:01:00,56.4,55.6,29.74,SSE,151,0.0,0.0,97,0.00,,CLR,0.29,VWS V14.00,2013-05-06 11:01:00,
2013-05-06 07:06:00,56.4,55.6,29.74,SSE,151,0.0,0.0,97,0.00,,CLR,0.29,VWS V14.00,2013-05-06 11:06:00,
2013-05-06 07:11:00,56.4,55.6,29.74,SSE,150,0.0,0.0,97,0.00,,CLR,0.29,VWS V14.00,2013-05-06 11:11:00,
2013-05-06 07:16:00,56.5,55.7,29.74,NNE,28,0.0,0.0,97,0.00,,CLR,0.29,VWS V14.00,2013-05-06 11:16:00,
2013-05-06 07:21:00,56.5,55.7,29.74,NNE,28,0.0,0.0,97,0.00,,CLR,0.29,VWS V14.00,2013-05-06 11:21:00,
2013-05-06 07:26:00,56.6,56.0,29.74,NE,39,0.0,1.0,98,0.00,,CLR,0.29,VWS V14.00,2013-05-06 11:26:00,
2013-05-06 07:31:00,56.6,56.0,29.75,NE,39,0.0,0.0,98,0.00,,CLR,0.29,VWS V14.00,2013-05-06 11:31:00,
2013-05-06 07:36:00,56.7,56.1,29.75,NE,39,0.0,0.0,98,0.00,,CLR,0.29,VWS V14.00,2013-05-06 11:36:00,
2013-05-06 07:41:00,56.7,56.1,29.75,NE,39,0.0,0.0,98,0.00,,CLR,0.29,VWS V14.00,2013-05-06 11:41:00,
2013-05-06 07:46:00,56.8,56.2,29.76,NE,39,0.0,0.0,98,0.00,,CLR,0.29,VWS V14.00,2013-05-06 11:46:00,
2013-05-06 07:51:00,57.0,56.4,29.76,NE,39,0.0,0.0,98,0.00,,CLR,0.29,VWS V14.00,2013-05-06 11:51:00,
2013-05-06 07:56:00,57.2,56.6,29.76,NE,39,0.0,1.0,98,0.00,,CLR,0.29,VWS V14.00,2013-05-06 11:56:00,
2013-05-06 08:01:00,57.4,56.8,29.76,NE,39,0.0,0.0,98,0.00,,CLR,0.29,VWS V14.00,2013-05-06 12:01:00,
2013-05-06 08:06:00,57.6,57.0,29.76,NE,39,0.0,0.0,98,0.00,,CLR,0.29,VWS V14.00,2013-05-06 12:06:00,
2013-05-06 08:11:00,57.7,57.1,29.76,NE,39,0.0,0.0,98,0.00,,CLR,0.29,VWS V14.00,2013-05-06 12:11:00,
2013-05-06 08:16:00,58.1,57.5,29.76,NE,39,0.0,0.0,98,0.00,,CLR,0.29,VWS V14.00,2013-05-06 12:16:00,
2013-05-06 08:21:00,58.4,57.8,29.76,NE,35,0.0,1.0,98,0.00,,CLR,0.29,VWS V14.00,2013-05-06 12:21:00,
2013-05-06 08:26:00,58.5,57.9,29.76,NE,36,0.0,1.0,98,0.00,,CLR,0.29,VWS V14.00,2013-05-06 12:26:00,
2013-05-06 08:31:00,58.6,58.0,29.76,NE,36,0.0,0.0,98,0.00,,CLR,0.29,VWS V14.00,2013-05-06 12:31:00,
2013-05-06 08:36:00,58.6,58.0,29.76,NE,41,0.0,1.0,98,0.00,,CLR,0.29,VWS V14.00,2013-05-06 12:36:00,
2013-05-06 08:41:00,59.0,58.4,29.76,NE,42,0.0,1.0,98,0.00,,CLR,0.29,VWS V14.00,2013-05-06 12:41:00,
2013-05-06 08:46:00,59.0,58.4,29.77,NE,44,0.0,1.0,98,0.00,,CLR,0.29,VWS V14.00,2013-05-06 12:46:00,
2013-05-06 08:51:00,58.6,58.0,29.77,ESE,111,0.0,1.0,98,0.00,,CLR,0.29,VWS V14.00,2013-05-06 12:51:00,
2013-05-06 08:56:00,58.2,57.6,29.77,ESE,112,0.0,1.0,98,0.00,,CLR,0.29,VWS V14.00,2013-05-06 12:56:00,
2013-05-06 09:01:00,58.1,57.5,29.77,ESE,113,0.0,0.0,98,0.00,,CLR,0.29,VWS V14.00,2013-05-06 13:01:00,
2013-05-06 09:06:00,59.0,58.4,29.77,ESE,113,0.0,1.0,98,0.00,,CLR,0.29,VWS V14.00,2013-05-06 13:06:00,
2013-05-06 09:11:00,59.1,58.5,29.77,ESE,113,0.0,1.0,98,0.00,,CLR,0.29,VWS V14.00,2013-05-06 13:11:00,
2013-05-06 09:16:00,59.5,58.9,29.77,ESE,113,0.0,1.0,98,0.00,,CLR,0.29,VWS V14.00,2013-05-06 13:16:00,
2013-05-06 09:21:00,59.6,59.0,29.77,ESE,111,0.0,1.0,98,0.00,,CLR,0.29,VWS V14.00,2013-05-06 13:21:00,
2013-05-06 09:26:00,59.3,58.7,29.77,ESE,111,0.0,1.0,98,0.00,,CLR,0.29,VWS V14.00,2013-05-06 13:26:00,
2013-05-06 09:31:00,59.3,58.7,29.77,ESE,109,0.0,0.0,98,0.00,,CLR,0.29,VWS V14.00,2013-05-06 13:31:00,
2013-05-06 09:36:00,59.0,58.4,29.77,ESE,110,0.0,0.0,98,0.00,,CLR,0.29,VWS V14.00,2013-05-06 13:36:00,
2013-05-06 09:41:00,59.0,58.4,29.77,ESE,108,0.0,0.0,98,0.00,,CLR,0.29,VWS V14.00,2013-05-06 13:41:00,
2013-05-06 09:46:00,58.8,58.2,29.78,ESE,110,0.0,0.0,98,0.00,,CLR,0.29,VWS V14.00,2013-05-06 13:46:00,
2013-05-06 09:51:00,58.9,58.3,29.78,ESE,109,0.0,0.0,98,0.00,,CLR,0.29,VWS V14.00,2013-05-06 13:51:00,
2013-05-06 09:56:00,59.0,58.4,29.78,ESE,108,0.0,0.0,98,0.00,,CLR,0.29,VWS V14.00,2013-05-06 13:56:00,
2013-05-06 10:01:00,59.0,58.4,29.78,ESE,108,0.0,0.0,98,0.00,,CLR,0.29,VWS V14.00,2013-05-06 14:01:00,
2013-05-06 10:06:00,59.0,58.2,29.78,ESE,110,0.0,0.0,97,0.00,,CLR,0.29,VWS V14.00,2013-05-06 14:06:00,
2013-05-06 10:11:00,59.0,58.4,29.78,ESE,110,0.0,0.0,98,0.00,,CLR,0.29,VWS V14.00,2013-05-06 14:11:00,
2013-05-06 10:16:00,59.0,58.4,29.78,ESE,111,0.0,0.0,98,0.00,,CLR,0.29,VWS V14.00,2013-05-06 14:16:00,
2013-05-06 10:21:00,59.0,58.2,29.78,ESE,111,0.0,0.0,97,0.00,,CLR,0.29,VWS V14.00,2013-05-06 14:21:00,
2013-05-06 10:26:00,59.0,58.2,29.78,ESE,111,0.0,0.0,97,0.00,,CLR,0.29,VWS V14.00,2013-05-06 14:26:00,
2013-05-06 10:31:00,59.0,58.2,29.79,ESE,111,0.0,0.0,97,0.00,,CLR,0.29,VWS V14.00,2013-05-06 14:31:00,
2013-05-06 10:36:00,59.3,58.5,29.79,ESE,112,0.0,0.0,97,0.00,,CLR,0.29,VWS V14.00,2013-05-06 14:36:00,
2013-05-06 10:41:00,59.5,58.7,29.79,ESE,114,0.0,0.0,97,0.00,,CLR,0.29,VWS V14.00,2013-05-06 14:41:00,
2013-05-06 10:46:00,59.6,58.8,29.79,ESE,114,0.0,0.0,97,0.00,,CLR,0.29,VWS V14.00,2013-05-06 14:46:00,
2013-05-06 10:51:00,59.6,58.8,29.79,ESE,113,0.0,0.0,97,0.00,,CLR,0.29,VWS V14.00,2013-05-06 14:51:00,
2013-05-06 10:56:00,59.7,58.6,29.79,ESE,113,0.0,1.0,96,0.00,,CLR,0.29,VWS V14.00,2013-05-06 14:56:00,
2013-05-06 11:01:00,60.5,59.4,29.79,ESE,113,0.0,1.0,96,0.00,,CLR,0.29,VWS V14.00,2013-05-06 15:01:00,
2013-05-06 11:06:00,61.0,59.9,29.79,ESE,113,0.0,1.0,96,0.00,,CLR,0.29,VWS V14.00,2013-05-06 15:06:00,
2013-05-06 11:11:00,60.8,59.4,29.79,ESE,113,0.0,1.0,95,0.00,,CLR,0.29,VWS V14.00,2013-05-06 15:11:00,
2013-05-06 11:16:00,60.8,59.1,29.80,SSE,158,0.0,1.0,94,0.00,,CLR,0.29,VWS V14.00,2013-05-06 15:16:00,
2013-05-06 11:21:00,60.8,59.1,29.80,WSW,245,1.0,7.0,94,0.00,,CLR,0.29,VWS V14.00,2013-05-06 15:21:00,
2013-05-06 11:26:00,59.9,57.9,29.80,SSW,207,0.0,7.0,93,0.00,,CLR,0.29,VWS V14.00,2013-05-06 15:26:00,
2013-05-06 11:31:00,59.0,57.0,29.80,South,180,5.0,7.0,93,0.00,,CLR,0.29,VWS V14.00,2013-05-06 15:31:00,
2013-05-06 11:36:00,59.0,57.6,29.80,WSW,250,0.0,8.0,95,0.00,,CLR,0.29,VWS V14.00,2013-05-06 15:36:00,
2013-05-06 11:41:00,59.0,57.0,29.80,WSW,239,0.0,8.0,93,0.00,,CLR,0.29,VWS V14.00,2013-05-06 15:41:00,
2013-05-06 11:46:00,59.0,57.0,29.80,SW,232,0.0,8.0,93,0.00,,CLR,0.29,VWS V14.00,2013-05-06 15:46:00,
2013-05-06 11:51:00,59.5,57.5,29.80,SW,233,0.0,8.0,93,0.00,,CLR,0.29,VWS V14.00,2013-05-06 15:51:00,
2013-05-06 11:56:00,59.9,58.2,29.80,SW,233,0.0,8.0,94,0.00,,CLR,0.29,VWS V14.00,2013-05-06 15:56:00,
2013-05-06 12:01:00,59.9,57.6,29.79,SW,233,0.0,2.0,92,0.00,,CLR,0.29,VWS V14.00,2013-05-06 16:01:00,
2013-05-06 12:06:00,60.3,58.3,29.79,SW,233,0.0,2.0,93,0.00,,CLR,0.29,VWS V14.00,2013-05-06 16:06:00,
2013-05-06 12:11:00,60.4,57.5,29.79,SW,233,0.0,3.0,90,0.00,,CLR,0.29,VWS V14.00,2013-05-06 16:11:00,
2013-05-06 12:16:00,60.6,58.3,29.80,WSW,238,0.0,3.0,92,0.00,,CLR,0.29,VWS V14.00,2013-05-06 16:16:00,
2013-05-06 12:21:00,61.0,58.7,29.80,WSW,238,0.0,3.0,92,0.00,,CLR,0.29,VWS V14.00,2013-05-06 16:21:00,
2013-05-06 12:26:00,61.0,58.4,29.80,WSW,238,0.0,3.0,91,0.00,,CLR,0.29,VWS V14.00,2013-05-06 16:26:00,
2013-05-06 12:31:00,61.2,58.2,29.79,SW,233,0.0,1.0,90,0.00,,CLR,0.29,VWS V14.00,2013-05-06 16:31:00,
2013-05-06 12:36:00,61.5,58.5,29.79,East,93,0.0,2.0,90,0.00,,CLR,0.29,VWS V14.00,2013-05-06 16:36:00,
2013-05-06 12:41:00,62.0,59.3,29.79,SSE,149,0.0,2.0,91,0.00,,CLR,0.29,VWS V14.00,2013-05-06 16:41:00,
2013-05-06 12:46:00,62.6,57.4,29.79,ENE,65,0.0,3.0,83,0.00,,CLR,0.29,VWS V14.00,2013-05-06 16:46:00,
2013-05-06 12:51:00,63.1,58.2,29.79,South,174,0.0,3.0,84,0.00,,CLR,0.29,VWS V14.00,2013-05-06 16:51:00,
2013-05-06 12:56:00,63.5,57.9,29.79,SSE,162,0.0,4.0,82,0.00,,CLR,0.29,VWS V14.00,2013-05-06 16:56:00,
2013-05-06 13:01:00,63.8,57.9,29.79,SSE,162,0.0,1.0,81,0.00,,CLR,0.29,VWS V14.00,2013-05-06 17:01:00,
2013-05-06 13:06:00,64.5,58.5,29.79,WNW,295,0.0,2.0,81,0.00,,CLR,0.29,VWS V14.00,2013-05-06 17:06:00,
2013-05-06 13:11:00,65.2,58.9,29.79,SSW,195,0.0,3.0,80,0.00,,CLR,0.29,VWS V14.00,2013-05-06 17:11:00,
2013-05-06 13:16:00,65.9,59.2,29.78,SE,136,3.0,3.0,79,0.00,,CLR,0.29,VWS V14.00,2013-05-06 17:16:00,
2013-05-06 13:21:00,66.3,57.8,29.78,SSW,197,0.0,4.0,74,0.00,,CLR,0.29,VWS V14.00,2013-05-06 17:21:00,
2013-05-06 13:26:00,66.7,57.8,29.78,SSW,208,0.0,4.0,73,0.00,,CLR,0.29,VWS V14.00,2013-05-06 17:26:00,
2013-05-06 13:31:00,66.5,58.3,29.77,SSW,208,1.0,1.0,75,0.00,,CLR,0.29,VWS V14.00,2013-05-06 17:31:00,
2013-05-06 13:36:00,66.8,59.4,29.77,WSW,240,0.0,4.0,77,0.00,,CLR,0.29,VWS V14.00,2013-05-06 17:36:00,
2013-05-06 13:41:00,66.8,58.6,29.77,WSW,239,0.0,4.0,75,0.00,,CLR,0.29,VWS V14.00,2013-05-06 17:41:00,
2013-05-06 13:46:00,66.9,57.6,29.77,SW,231,3.0,4.0,72,0.00,,CLR,0.29,VWS V14.00,2013-05-06 17:46:00,
2013-05-06 13:51:00,67.0,57.3,29.77,SE,142,0.0,4.0,71,0.00,,CLR,0.29,VWS V14.00,2013-05-06 17:51:00,
2013-05-06 13:56:00,67.0,58.5,29.77,South,172,0.0,4.0,74,0.00,,CLR,0.29,VWS V14.00,2013-05-06 17:56:00,
2013-05-06 14:01:00,66.9,56.4,29.77,SSW,210,0.0,5.0,69,0.00,,CLR,0.29,VWS V14.00,2013-05-06 18:01:00,
2013-05-06 14:06:00,67.0,55.3,29.77,East,97,0.0,5.0,66,0.00,,CLR,0.29,VWS V14.00,2013-05-06 18:06:00,
2013-05-06 14:11:00,67.2,55.9,29.77,SSE,165,1.0,5.0,67,0.00,,CLR,0.29,VWS V14.00,2013-05-06 18:11:00,
2013-05-06 14:16:00,67.1,55.0,29.76,SW,236,1.0,5.0,65,0.00,,CLR,0.29,VWS V14.00,2013-05-06 18:16:00,
2013-05-06 14:21:00,67.2,54.2,29.76,SSW,212,0.0,5.0,63,0.00,,CLR,0.29,VWS V14.00,2013-05-06 18:21:00,
2013-05-06 14:26:00,67.3,54.3,29.76,SSW,200,0.0,5.0,63,0.00,,CLR,0.29,VWS V14.00,2013-05-06 18:26:00,
2013-05-06 14:31:00,67.8,54.8,29.76,SSW,199,0.0,3.0,63,0.00,,CLR,0.29,VWS V14.00,2013-05-06 18:31:00,
2013-05-06 14:36:00,67.5,53.1,29.76,SSW,198,2.0,3.0,60,0.00,,CLR,0.29,VWS V14.00,2013-05-06 18:36:00,
2013-05-06 14:41:00,66.8,55.5,29.76,SSE,152,0.0,3.0,67,0.00,,CLR,0.29,VWS V14.00,2013-05-06 18:41:00,
2013-05-06 14:46:00,67.1,53.7,29.76,ENE,58,0.0,3.0,62,0.00,,CLR,0.29,VWS V14.00,2013-05-06 18:46:00,
2013-05-06 14:51:00,67.5,52.7,29.76,SW,230,2.0,9.0,59,0.00,,CLR,0.29,VWS V14.00,2013-05-06 18:51:00,
2013-05-06 14:56:00,67.5,53.1,29.76,WSW,242,2.0,9.0,60,0.00,,CLR,0.29,VWS V14.00,2013-05-06 18:56:00,
2013-05-06 15:01:00,67.7,54.2,29.76,SW,219,5.0,5.0,62,0.00,,CLR,0.29,VWS V14.00,2013-05-06 19:01:00,
2013-05-06 15:06:00,67.3,53.0,29.76,SW,215,0.0,7.0,60,0.00,,CLR,0.29,VWS V14.00,2013-05-06 19:06:00,
2013-05-06 15:11:00,67.0,51.3,29.76,SW,224,0.0,7.0,57,0.00,,CLR,0.29,VWS V14.00,2013-05-06 19:11:00,
2013-05-06 15:16:00,67.0,53.6,29.76,SW,224,0.0,7.0,62,0.00,,CLR,0.29,VWS V14.00,2013-05-06 19:16:00,
2013-05-06 15:21:00,67.7,52.9,29.76,SW,224,0.0,7.0,59,0.00,,CLR,0.29,VWS V14.00,2013-05-06 19:21:00,
2013-05-06 15:26:00,67.8,53.9,29.76,SW,226,0.0,9.0,61,0.00,,CLR,0.29,VWS V14.00,2013-05-06 19:26:00,
2013-05-06 15:31:00,67.9,52.6,29.75,SW,227,3.0,3.0,58,0.00,,CLR,0.29,VWS V14.00,2013-05-06 19:31:00,
2013-05-06 15:36:00,68.0,53.6,29.75,SW,231,0.0,5.0,60,0.00,,CLR,0.29,VWS V14.00,2013-05-06 19:36:00,
2013-05-06 15:41:00,68.2,54.2,29.75,South,183,0.0,5.0,61,0.00,,CLR,0.29,VWS V14.00,2013-05-06 19:41:00,
2013-05-06 15:46:00,68.3,51.5,29.75,SW,225,0.0,6.0,55,0.00,,CLR,0.29,VWS V14.00,2013-05-06 19:46:00,
2013-05-06 15:51:00,68.0,52.7,29.75,SW,221,1.0,10.0,58,0.00,,CLR,0.29,VWS V14.00,2013-05-06 19:51:00,
2013-05-06 15:56:00,67.2,51.9,29.75,SW,217,1.0,10.0,58,0.00,,CLR,0.29,VWS V14.00,2013-05-06 19:56:00,
2013-05-06 16:01:00,66.4,51.2,29.75,SW,219,0.0,1.0,58,0.00,,CLR,0.29,VWS V14.00,2013-05-06 20:01:00,
2013-05-06 16:06:00,65.6,52.7,29.75,SW,216,0.0,1.0,63,0.00,,CLR,0.29,VWS V14.00,2013-05-06 20:06:00,
2013-05-06 16:11:00,65.8,54.1,29.75,WSW,246,0.0,4.0,66,0.00,,CLR,0.29,VWS V14.00,2013-05-06 20:11:00,
2013-05-06 16:16:00,66.4,54.3,29.74,South,186,0.0,7.0,65,0.00,,CLR,0.29,VWS V14.00,2013-05-06 20:16:00,
2013-05-06 16:21:00,66.8,55.5,29.74,SW,229,0.0,7.0,67,0.00,,CLR,0.29,VWS V14.00,2013-05-06 20:21:00,
2013-05-06 16:26:00,66.6,52.8,29.74,ESE,113,0.0,7.0,61,0.00,,CLR,0.29,VWS V14.00,2013-05-06 20:26:00,
2013-05-06 16:31:00,66.9,53.0,29.74,SSW,198,1.0,2.0,61,0.00,,CLR,0.29,VWS V14.00,2013-05-06 20:31:00,
2013-05-06 16:36:00,67.0,51.8,29.74,SW,233,0.0,7.0,58,0.00,,CLR,0.29,VWS V14.00,2013-05-06 20:36:00,
2013-05-06 16:41:00,67.1,51.4,29.74,SW,228,0.0,7.0,57,0.00,,CLR,0.29,VWS V14.00,2013-05-06 20:41:00,
2013-05-06 16:46:00,66.3,52.9,29.74,SW,228,0.0,7.0,62,0.00,,CLR,0.29,VWS V14.00,2013-05-06 20:46:00,
2013-05-06 16:51:00,65.8,53.7,29.74,SW,228,0.0,7.0,65,0.00,,CLR,0.29,VWS V14.00,2013-05-06 20:51:00,
2013-05-06 16:56:00,65.3,52.0,29.74,SW,225,0.0,7.0,62,0.00,,CLR,0.29,VWS V14.00,2013-05-06 20:56:00,
2013-05-06 17:01:00,65.6,54.4,29.74,SSW,193,1.0,5.0,67,0.00,,CLR,0.29,VWS V14.00,2013-05-06 21:01:00,
2013-05-06 17:06:00,66.3,53.3,29.74,SSW,212,3.0,5.0,63,0.00,,CLR,0.29,VWS V14.00,2013-05-06 21:06:00,
2013-05-06 17:11:00,65.9,53.0,29.74,SW,214,0.0,5.0,63,0.00,,CLR,0.29,VWS V14.00,2013-05-06 21:11:00,
2013-05-06 17:16:00,65.9,51.2,29.74,SSW,210,0.0,5.0,59,0.00,,CLR,0.29,VWS V14.00,2013-05-06 21:16:00,
2013-05-06 17:21:00,66.5,51.8,29.74,SW,226,1.0,13.0,59,0.00,,CLR,0.29,VWS V14.00,2013-05-06 21:21:00,
2013-05-06 17:26:00,66.7,51.9,29.74,SW,225,0.0,13.0,59,0.00,,CLR,0.29,VWS V14.00,2013-05-06 21:26:00,
2013-05-06 17:31:00,66.4,52.6,29.74,SW,226,0.0,2.0,61,0.00,,CLR,0.29,VWS V14.00,2013-05-06 21:31:00,
2013-05-06 17:36:00,66.0,53.9,29.74,SW,226,0.0,2.0,65,0.00,,CLR,0.29,VWS V14.00,2013-05-06 21:36:00,
2013-05-06 17:41:00,65.5,51.3,29.74,SW,234,1.0,3.0,60,0.00,,CLR,0.29,VWS V14.00,2013-05-06 21:41:00,
2013-05-06 17:46:00,64.9,52.0,29.75,SW,233,2.0,5.0,63,0.00,,CLR,0.29,VWS V14.00,2013-05-06 21:46:00,
2013-05-06 17:51:00,64.5,53.3,29.75,SW,236,0.0,6.0,67,0.00,,CLR,0.29,VWS V14.00,2013-05-06 21:51:00,
2013-05-06 17:56:00,64.0,51.6,29.75,SW,222,0.0,6.0,64,0.00,,CLR,0.29,VWS V14.00,2013-05-06 21:56:00,
2013-05-06 18:01:00,64.1,52.9,29.74,SW,230,0.0,3.0,67,0.00,,CLR,0.29,VWS V14.00,2013-05-06 22:01:00,
2013-05-06 18:06:00,64.5,54.1,29.74,SSW,212,0.0,5.0,69,0.00,,CLR,0.29,VWS V14.00,2013-05-06 22:06:00,
2013-05-06 18:11:00,64.7,55.1,29.74,SSW,212,0.0,5.0,71,0.00,,CLR,0.29,VWS V14.00,2013-05-06 22:11:00,
2013-05-06 18:16:00,65.2,53.6,29.75,SSW,213,0.0,11.0,66,0.00,,CLR,0.29,VWS V14.00,2013-05-06 22:16:00,
2013-05-06 18:21:00,65.5,51.7,29.75,SW,221,3.0,11.0,61,0.00,,CLR,0.29,VWS V14.00,2013-05-06 22:21:00,
2013-05-06 18:26:00,65.2,54.4,29.75,SW,224,0.0,11.0,68,0.00,,CLR,0.29,VWS V14.00,2013-05-06 22:26:00,
2013-05-06 18:31:00,64.9,53.3,29.75,South,184,1.0,6.0,66,0.00,,CLR,0.29,VWS V14.00,2013-05-06 22:31:00,
2013-05-06 18:36:00,64.7,52.3,29.75,WSW,250,0.0,11.0,64,0.00,,CLR,0.29,VWS V14.00,2013-05-06 22:36:00,
2013-05-06 18:41:00,64.6,52.2,29.75,SSW,192,5.0,11.0,64,0.00,,CLR,0.29,VWS V14.00,2013-05-06 22:41:00,
2013-05-06 18:46:00,64.4,52.0,29.76,SW,228,3.0,11.0,64,0.00,,CLR,0.29,VWS V14.00,2013-05-06 22:46:00,
2013-05-06 18:51:00,64.3,52.7,29.76,SSW,200,0.0,11.0,66,0.00,,CLR,0.29,VWS V14.00,2013-05-06 22:51:00,
2013-05-06 18:56:00,64.1,53.3,29.76,SW,231,0.0,11.0,68,0.00,,CLR,0.29,VWS V14.00,2013-05-06 22:56:00,
2013-05-06 19:01:00,63.6,51.2,29.76,SSW,212,4.0,12.0,64,0.00,,CLR,0.29,VWS V14.00,2013-05-06 23:01:00,
2013-05-06 19:06:00,63.2,52.1,29.76,SW,231,2.0,12.0,67,0.00,,CLR,0.29,VWS V14.00,2013-05-06 23:06:00,
2013-05-06 19:11:00,62.8,51.3,29.76,SW,228,2.0,12.0,66,0.00,,CLR,0.29,VWS V14.00,2013-05-06 23:11:00,
2013-05-06 19:16:00,62.5,51.8,29.76,SSW,211,3.0,12.0,68,0.00,,CLR,0.29,VWS V14.00,2013-05-06 23:16:00,
2013-05-06 19:21:00,62.2,51.5,29.76,SW,229,3.0,12.0,68,0.00,,CLR,0.29,VWS V14.00,2013-05-06 23:21:00,
2013-05-06 19:26:00,62.0,51.3,29.76,WSW,253,0.0,12.0,68,0.00,,CLR,0.29,VWS V14.00,2013-05-06 23:26:00,
2013-05-06 19:31:00,61.7,51.4,29.77,WSW,247,4.0,6.0,69,0.00,,CLR,0.29,VWS V14.00,2013-05-06 23:31:00,
2013-05-06 19:36:00,61.4,50.4,29.77,SW,218,0.0,14.0,67,0.00,,CLR,0.29,VWS V14.00,2013-05-06 23:36:00,
2013-05-06 19:41:00,61.0,50.0,29.77,SW,219,2.0,14.0,67,0.00,,CLR,0.29,VWS V14.00,2013-05-06 23:41:00,
2013-05-06 19:46:00,60.7,50.5,29.77,SW,236,0.0,14.0,69,0.00,,CLR,0.29,VWS V14.00,2013-05-06 23:46:00,
2013-05-06 19:51:00,60.4,50.6,29.77,SW,229,2.0,14.0,70,0.00,,CLR,0.29,VWS V14.00,2013-05-06 23:51:00,
2013-05-06 19:56:00,60.1,49.9,29.77,SW,231,0.0,14.0,69,0.00,,CLR,0.29,VWS V14.00,2013-05-06 23:56:00,
2013-05-06 20:01:00,59.8,49.6,29.77,SW,224,2.0,4.0,69,0.00,,CLR,0.29,VWS V14.00,2013-05-07 00:01:00,
2013-05-06 20:06:00,59.4,50.0,29.77,SW,224,0.0,4.0,71,0.00,,CLR,0.29,VWS V14.00,2013-05-07 00:06:00,
2013-05-06 20:11:00,59.0,49.2,29.77,WSW,257,0.0,4.0,70,0.00,,CLR,0.29,VWS V14.00,2013-05-07 00:11:00,
2013-05-06 20:16:00,58.9,50.3,29.78,SSW,210,0.0,6.0,73,0.00,,CLR,0.29,VWS V14.00,2013-05-07 00:16:00,
2013-05-06 20:21:00,58.5,49.5,29.78,SW,214,0.0,6.0,72,0.00,,CLR,0.29,VWS V14.00,2013-05-07 00:21:00,
2013-05-06 20:26:00,58.0,49.4,29.78,SSW,207,0.0,6.0,73,0.00,,CLR,0.29,VWS V14.00,2013-05-07 00:26:00,
2013-05-06 20:31:00,57.7,49.1,29.79,SSW,207,0.0,2.0,73,0.00,,CLR,0.29,VWS V14.00,2013-05-07 00:31:00,
2013-05-06 20:36:00,57.4,48.8,29.79,SSW,207,0.0,2.0,73,0.00,,CLR,0.29,VWS V14.00,2013-05-07 00:36:00,
2013-05-06 20:41:00,57.1,48.9,29.79,SSW,207,0.0,2.0,74,0.00,,CLR,0.29,VWS V14.00,2013-05-07 00:41:00,
2013-05-06 20:46:00,56.8,49.0,29.79,SSW,207,0.0,2.0,75,0.00,,CLR,0.29,VWS V14.00,2013-05-07 00:46:00,
2013-05-06 20:51:00,56.6,48.8,29.79,SSW,207,0.0,2.0,75,0.00,,CLR,0.29,VWS V14.00,2013-05-07 00:51:00,
2013-05-06 20:56:00,56.5,48.3,29.79,SSW,207,0.0,2.0,74,0.00,,CLR,0.29,VWS V14.00,2013-05-07 00:56:00,
2013-05-06 21:01:00,56.4,48.9,29.79,SSW,207,0.0,0.0,76,0.00,,CLR,0.29,VWS V14.00,2013-05-07 01:01:00,
2013-05-06 21:06:00,56.3,48.8,29.79,SSW,207,0.0,1.0,76,0.00,,CLR,0.29,VWS V14.00,2013-05-07 01:06:00,
2013-05-06 21:11:00,56.2,48.8,29.79,SSW,207,0.0,1.0,76,0.00,,CLR,0.29,VWS V14.00,2013-05-07 01:11:00,
2013-05-06 21:16:00,56.1,48.7,29.80,SSW,207,0.0,1.0,76,0.00,,CLR,0.29,VWS V14.00,2013-05-07 01:16:00,
2013-05-06 21:21:00,56.1,48.7,29.80,SSW,207,0.0,1.0,76,0.00,,CLR,0.29,VWS V14.00,2013-05-07 01:21:00,
2013-05-06 21:26:00,56.0,48.9,29.80,SSW,207,0.0,1.0,77,0.00,,CLR,0.29,VWS V14.00,2013-05-07 01:26:00,
2013-05-06 21:31:00,55.9,48.8,29.80,SSW,207,0.0,0.0,77,0.00,,CLR,0.29,VWS V14.00,2013-05-07 01:31:00,
2013-05-06 21:36:00,55.7,49.0,29.80,SSW,207,0.0,1.0,78,0.00,,CLR,0.29,VWS V14.00,2013-05-07 01:36:00,
2013-05-06 21:41:00,55.5,48.4,29.80,SW,217,0.0,4.0,77,0.00,,CLR,0.29,VWS V14.00,2013-05-07 01:41:00,
2013-05-06 21:46:00,55.4,48.7,29.80,SW,217,0.0,4.0,78,0.00,,CLR,0.29,VWS V14.00,2013-05-07 01:46:00,
2013-05-06 21:51:00,55.2,48.5,29.80,SW,217,0.0,4.0,78,0.00,,CLR,0.29,VWS V14.00,2013-05-07 01:51:00,
2013-05-06 21:56:00,55.0,48.6,29.80,SW,217,0.0,4.0,79,0.00,,CLR,0.29,VWS V14.00,2013-05-07 01:56:00,
2013-05-06 22:01:00,54.6,48.2,29.81,SW,217,0.0,1.0,79,0.00,,CLR,0.29,VWS V14.00,2013-05-07 02:01:00,
2013-05-06 22:06:00,54.4,48.4,29.81,SW,217,0.0,2.0,80,0.00,,CLR,0.29,VWS V14.00,2013-05-07 02:06:00,
2013-05-06 22:11:00,54.2,48.2,29.81,SW,217,0.0,2.0,80,0.00,,CLR,0.29,VWS V14.00,2013-05-07 02:11:00,
2013-05-06 22:16:00,54.1,48.4,29.82,SW,217,0.0,2.0,81,0.00,,CLR,0.29,VWS V14.00,2013-05-07 02:16:00,
2013-05-06 22:21:00,54.0,48.3,29.82,SW,217,0.0,2.0,81,0.00,,CLR,0.29,VWS V14.00,2013-05-07 02:21:00,
2013-05-06 22:26:00,53.9,48.5,29.82,SW,217,0.0,2.0,82,0.00,,CLR,0.29,VWS V14.00,2013-05-07 02:26:00,
2013-05-06 22:31:00,53.8,48.4,29.82,SW,217,0.0,0.0,82,0.00,,CLR,0.29,VWS V14.00,2013-05-07 02:31:00,
2013-05-06 22:36:00,53.7,48.3,29.82,SW,217,0.0,0.0,82,0.00,,CLR,0.29,VWS V14.00,2013-05-07 02:36:00,
2013-05-06 22:41:00,53.6,48.6,29.82,SW,217,0.0,0.0,83,0.00,,CLR,0.29,VWS V14.00,2013-05-07 02:41:00,
2013-05-06 22:46:00,53.6,48.6,29.82,SW,217,0.0,0.0,83,0.00,,CLR,0.29,VWS V14.00,2013-05-07 02:46:00,
2013-05-06 22:51:00,53.5,48.5,29.82,SW,217,0.0,0.0,83,0.00,,CLR,0.29,VWS V14.00,2013-05-07 02:51:00,
2013-05-06 22:56:00,53.5,48.5,29.82,SW,217,0.0,0.0,83,0.00,,CLR,0.29,VWS V14.00,2013-05-07 02:56:00,
2013-05-06 23:01:00,53.4,48.7,29.82,SW,217,0.0,0.0,84,0.00,,CLR,0.29,VWS V14.00,2013-05-07 03:01:00,
2013-05-06 23:06:00,53.3,48.6,29.82,SW,217,0.0,0.0,84,0.00,,CLR,0.29,VWS V14.00,2013-05-07 03:06:00,
2013-05-06 23:11:00,53.1,48.4,29.82,SW,217,0.0,0.0,84,0.00,,CLR,0.29,VWS V14.00,2013-05-07 03:11:00,
2013-05-06 23:16:00,53.0,48.6,29.82,SW,217,0.0,0.0,85,0.00,,CLR,0.29,VWS V14.00,2013-05-07 03:16:00,
2013-05-06 23:21:00,52.8,49.0,29.82,SW,217,0.0,0.0,87,0.00,,CLR,0.29,VWS V14.00,2013-05-07 03:21:00,
2013-05-06 23:26:00,52.5,48.4,29.82,SW,217,0.0,0.0,86,0.00,,CLR,0.29,VWS V14.00,2013-05-07 03:26:00,
2013-05-06 23:31:00,52.3,48.2,29.81,SW,217,0.0,0.0,86,0.00,,CLR,0.29,VWS V14.00,2013-05-07 03:31:00,
2013-05-06 23:36:00,52.2,48.8,29.81,SW,217,0.0,0.0,88,0.00,,CLR,0.29,VWS V14.00,2013-05-07 03:36:00,
2013-05-06 23:41:00,51.9,48.8,29.81,SW,217,0.0,0.0,89,0.00,,CLR,0.29,VWS V14.00,2013-05-07 03:41:00,
2013-05-06 23:46:00,51.7,48.3,29.82,SW,217,0.0,0.0,88,0.00,,CLR,0.29,VWS V14.00,2013-05-07 03:46:00,
2013-05-06 23:51:00,51.5,48.1,29.82,SW,217,0.0,0.0,88,0.00,,CLR,0.29,VWS V14.00,2013-05-07 03:51:00,
2013-05-06 23:56:00,51.4,48.0,29.82,SW,217,0.0,0.0,88,0.00,,CLR,0.29,VWS V14.00,2013-05-07 03:56:00,